Time;durP1;ratioP1;P1;durP2;ratioP2;P2;SDS_P1;SDS_P2;PMS_P1;PMS_P2;Temp;Humidity;BMP_temperature;BMP_pressure;BME280_temperature;BME280_humidity;BME280_pressure;Samples;Min_cycle;Max_cycle;Signal;HPM_P1;HPM_P2
2023/05/13 00:01:09;;;;;;;4.13;3.73;;;;;;;8.56;100.00;96422.09;7392908;19;20436;-74
2023/05/13 00:03:36;;;;;;;3.90;3.60;;;;;;;8.62;100.00;96420.06;7395986;19;20904;-74
2023/05/13 00:06:04;;;;;;;4.57;4.17;;;;;;;8.55;100.00;96414.50;7394370;19;21235;-74
2023/05/13 00:08:31;;;;;;;4.13;2.83;;;;;;;8.58;100.00;96408.59;7396203;19;20389;-74
2023/05/13 00:10:58;;;;;;;3.77;3.47;;;;;;;8.42;100.00;96386.44;7393008;19;20449;-74
2023/05/13 00:13:25;;;;;;;3.97;3.60;;;;;;;8.59;100.00;96404.88;7396531;19;20397;-74
2023/05/13 00:15:52;;;;;;;4.90;4.10;;;;;;;8.65;100.00;96405.47;7394360;19;20379;-73
2023/05/13 00:18:19;;;;;;;5.40;3.47;;;;;;;8.49;100.00;96381.47;7394443;19;20366;-75
2023/05/13 00:20:46;;;;;;;4.10;3.80;;;;;;;8.52;100.00;96378.22;7394280;19;20815;-74
2023/05/13 00:23:13;;;;;;;4.90;4.33;;;;;;;8.43;100.00;96369.56;7392718;19;20389;-74
2023/05/13 00:25:40;;;;;;;4.70;4.27;;;;;;;8.46;100.00;96374.19;7394246;19;20357;-74
2023/05/13 00:28:07;;;;;;;4.13;3.73;;;;;;;8.57;100.00;96396.50;7392996;19;20432;-74
2023/05/13 00:30:34;;;;;;;4.70;3.80;;;;;;;8.48;100.00;96380.69;7393468;19;20523;-74
2023/05/13 00:33:01;;;;;;;3.67;3.27;;;;;;;8.57;100.00;96392.03;7394416;19;20397;-74
2023/05/13 00:35:28;;;;;;;4.37;3.83;;;;;;;8.56;100.00;96387.84;7395882;19;20775;-74
2023/05/13 00:37:55;;;;;;;5.00;4.50;;;;;;;8.61;100.00;96394.81;7394011;19;20920;-74
2023/05/13 00:40:23;;;;;;;4.93;4.43;;;;;;;8.58;100.00;96390.16;7392868;19;20448;-74
2023/05/13 00:42:50;;;;;;;5.53;4.23;;;;;;;8.41;100.00;96369.84;7392445;19;20373;-74
2023/05/13 00:45:18;;;;;;;4.30;4.00;;;;;;;8.59;100.00;96389.06;7395589;19;20341;-74
2023/05/13 00:47:46;;;;;;;6.40;3.83;;;;;;;8.43;100.00;96375.59;7392549;19;20440;-74
2023/05/13 00:50:13;;;;;;;3.93;3.60;;;;;;;8.43;100.00;96372.19;7393074;19;20424;-74
2023/05/13 00:52:41;;;;;;;6.53;4.33;;;;;;;8.45;100.00;96381.31;7393192;19;20376;-74
2023/05/13 00:55:09;;;;;;;4.20;3.80;;;;;;;8.51;100.00;96387.97;7394826;19;20400;-74
2023/05/13 00:57:38;;;;;;;5.83;4.40;;;;;;;8.50;100.00;96393.56;7400089;19;20385;-74
2023/05/13 01:00:06;;;;;;;4.23;3.90;;;;;;;8.50;100.00;96390.94;7400307;19;20458;-74
2023/05/13 01:03:01;;;;;;;4.50;4.10;;;;;;;8.56;100.00;96395.75;7400235;19;20458;-74
2023/05/13 01:06:03;;;;;;;5.30;4.30;;;;;;;8.17;100.00;96348.44;7401051;19;20344;-74
2023/05/13 01:08:30;;;;;;;4.13;3.73;;;;;;;8.49;100.00;96399.91;7401680;19;20375;-74
2023/05/13 01:11:02;;;;;;;6.17;4.30;;;;;;;8.48;100.00;96404.41;7398083;19;20449;-74
2023/05/13 01:13:38;;;;;;;5.23;4.73;;;;;;;8.49;100.00;96399.91;7398556;19;20842;-74
2023/05/13 01:16:15;;;;;;;4.23;3.83;;;;;;;8.37;100.00;96390.00;7400827;19;20455;-74
2023/05/13 01:18:48;;;;;;;4.27;3.90;;;;;;;8.46;100.00;96406.59;7399432;19;20409;-74
2023/05/13 01:21:15;;;;;;;6.70;3.33;;;;;;;8.51;100.00;96413.56;7398625;19;20372;-74
2023/05/13 01:23:42;;;;;;;4.90;4.50;;;;;;;8.29;100.00;96375.72;7399239;19;20394;-74
2023/05/13 01:26:09;;;;;;;4.63;4.33;;;;;;;8.48;100.00;96404.41;7400872;19;20397;-74
2023/05/13 01:28:37;;;;;;;4.50;4.10;;;;;;;8.47;100.00;96400.22;7399571;19;20377;-74
2023/05/13 01:31:05;;;;;;;3.93;3.50;;;;;;;8.57;100.00;96413.09;7398100;19;20446;-74
2023/05/13 01:33:32;;;;;;;4.70;3.70;;;;;;;8.56;100.00;96416.06;7401203;19;20451;-74
2023/05/13 01:35:59;;;;;;;4.10;3.80;;;;;;;8.45;100.00;96401.63;7400727;19;20369;-74
2023/05/13 01:38:27;;;;;;;5.77;4.50;;;;;;;8.36;100.00;96398.97;7398767;19;20780;-74
2023/05/13 01:40:57;;;;;;;6.10;4.87;;;;;;;8.55;100.00;96425.03;7398555;19;20433;-74
2023/05/13 01:43:26;;;;;;;4.17;3.87;;;;;;;8.20;100.00;96364.41;7399369;19;20369;-74
2023/05/13 01:45:53;;;;;;;3.97;3.67;;;;;;;8.26;100.00;96375.53;7397508;19;20376;-74
2023/05/13 01:48:21;;;;;;;5.00;3.67;;;;;;;8.56;100.00;96422.09;7398824;19;20929;-74
2023/05/13 01:50:48;;;;;;;4.60;4.10;;;;;;;8.61;100.00;96423.78;7395399;19;20428;-74
2023/05/13 01:53:15;;;;;;;5.10;4.03;;;;;;;8.40;100.00;96388.59;7399265;19;20408;-74
2023/05/13 01:55:42;;;;;;;5.90;4.07;;;;;;;8.58;100.00;96414.66;7397625;19;20361;-74
2023/05/13 01:58:08;;;;;;;4.63;4.23;;;;;;;8.58;100.00;96425.19;7399340;19;20377;-74
2023/05/13 02:00:35;;;;;;;4.23;3.93;;;;;;;8.59;100.00;96424.09;7395704;19;20444;-74
2023/05/13 02:03:02;;;;;;;5.30;3.67;;;;;;;8.44;100.00;96400.09;7398412;19;20785;-74
2023/05/13 02:05:31;;;;;;;5.00;4.30;;;;;;;8.58;100.00;96432.31;7397593;19;20387;-74
2023/05/13 02:08:03;;;;;;;4.50;3.93;;;;;;;8.38;100.00;96402.06;7397507;19;20475;-74
2023/05/13 02:10:30;;;;;;;4.80;4.20;;;;;;;8.45;100.00;96406.91;7395623;19;20512;-74
2023/05/13 02:12:59;;;;;;;5.60;4.37;;;;;;;8.58;100.00;96424.41;7399160;19;20368;-74
2023/05/13 02:15:26;;;;;;;5.80;5.20;;;;;;;8.26;100.00;96370.28;7397204;19;20369;-74
2023/05/13 02:17:53;;;;;;;4.53;4.13;;;;;;;8.58;100.00;96430.47;7398910;19;20409;-74
2023/05/13 02:20:20;;;;;;;5.50;4.70;;;;;;;8.55;100.00;96417.13;7396020;19;20458;-74
2023/05/13 02:22:47;;;;;;;4.30;3.90;;;;;;;8.40;100.00;96404.41;7398779;19;20397;-74
2023/05/13 02:25:14;;;;;;;4.20;3.90;;;;;;;8.58;100.00;96424.41;7397736;19;20390;-74
2023/05/13 02:27:41;;;;;;;5.93;3.90;;;;;;;8.68;100.00;96424.09;7398850;19;20460;-74
2023/05/13 02:30:08;;;;;;;10.03;8.63;;;;;;;8.62;100.00;96417.44;7395898;19;20444;-74
2023/05/13 02:32:35;;;;;;;9.77;8.83;;;;;;;8.62;100.00;96414.78;7398525;19;20408;-74
2023/05/13 02:35:02;;;;;;;8.17;7.03;;;;;;;8.63;100.00;96415.56;7396778;19;20376;-74
2023/05/13 02:37:29;;;;;;;7.90;7.20;;;;;;;8.54;100.00;96397.13;7398390;19;20932;-74
2023/05/13 02:40:00;;;;;;;10.40;7.33;;;;;;;8.64;100.00;96414.47;7397467;19;20436;-74
2023/05/13 02:42:27;;;;;;;8.50;7.80;;;;;;;8.64;100.00;96422.38;7398422;19;20365;-74
2023/05/13 02:44:54;;;;;;;7.70;7.00;;;;;;;8.34;100.00;96385.34;7396680;19;20397;-74
2023/05/13 02:47:22;;;;;;;5.40;4.90;;;;;;;8.62;100.00;96416.66;7398268;19;20384;-74
2023/05/13 02:49:49;;;;;;;5.23;4.73;;;;;;;8.61;100.00;96407.97;7396037;19;20960;-74
2023/05/13 02:52:16;;;;;;;5.03;4.47;;;;;;;8.57;100.00;96402.56;7398293;19;20904;-74
2023/05/13 02:54:43;;;;;;;4.40;4.10;;;;;;;8.63;100.00;96412.94;7396588;19;20405;-74
2023/05/13 02:57:10;;;;;;;4.30;3.90;;;;;;;8.48;100.00;96395.72;7395493;19;20432;-74
2023/05/13 02:59:37;;;;;;;4.80;4.40;;;;;;;8.44;100.00;96400.84;7395757;19;21007;-74
2023/05/13 03:02:04;;;;;;;4.80;4.07;;;;;;;8.61;100.00;96423.00;7395444;19;20474;-74
2023/05/13 03:04:31;;;;;;;5.13;4.23;;;;;;;8.63;100.00;96424.25;7396514;19;20380;-74
2023/05/13 03:06:58;;;;;;;5.60;5.10;;;;;;;8.42;100.00;96397.00;7395259;19;20404;-74
2023/05/13 03:09:25;;;;;;;5.10;4.70;;;;;;;8.22;100.00;96364.84;7396161;19;20433;-74
2023/05/13 03:11:52;;;;;;;5.93;4.50;;;;;;;8.61;100.00;96417.75;7395245;19;20406;-74
2023/05/13 03:14:19;;;;;;;4.30;4.00;;;;;;;8.42;100.00;96391.72;7396718;19;20395;-74
2023/05/13 03:16:46;;;;;;;7.30;4.27;;;;;;;8.61;100.00;96418.50;7395094;19;20388;-74
2023/05/13 03:19:13;;;;;;;4.80;4.40;;;;;;;8.43;100.00;96390.63;7396042;19;20532;-74
2023/05/13 03:21:40;;;;;;;5.60;4.57;;;;;;;8.52;100.00;96400.06;7394795;19;20364;-74
2023/05/13 03:24:10;;;;;;;4.73;4.33;;;;;;;8.39;100.00;96393.09;7396683;19;20407;-74
2023/05/13 03:26:37;;;;;;;4.63;4.23;;;;;;;8.55;100.00;96422.41;7394808;19;20384;-74
2023/05/13 03:29:05;;;;;;;3.97;3.67;;;;;;;8.41;100.00;96400.69;7395801;19;20360;-74
2023/05/13 03:31:33;;;;;;;5.27;4.43;;;;;;;8.40;100.00;96399.13;7394924;19;20372;-74
2023/05/13 03:34:03;;;;;;;4.17;3.87;;;;;;;8.52;100.00;96420.38;7396576;19;20368;-74
2023/05/13 03:36:31;;;;;;;6.00;4.77;;;;;;;8.30;100.00;96395.72;7395057;19;20390;-74
2023/05/13 03:38:58;;;;;;;4.90;4.40;;;;;;;8.31;100.00;96385.94;7395741;19;20807;-74
2023/05/13 03:41:27;;;;;;;4.10;3.80;;;;;;;8.39;100.00;96408.91;7393872;19;20400;-74
2023/05/13 03:43:56;;;;;;;5.10;3.97;;;;;;;8.32;100.00;96399.88;7396619;19;20447;-74
2023/05/13 03:46:26;;;;;;;4.90;4.50;;;;;;;8.59;100.00;96434.66;7396159;19;20345;-74
2023/05/13 03:48:57;;;;;;;5.20;4.80;;;;;;;8.46;100.00;96408.44;7396092;19;20373;-74
2023/05/13 03:51:26;;;;;;;4.50;4.20;;;;;;;8.10;100.00;96361.28;7395227;19;20384;-74
2023/05/13 03:53:53;;;;;;;4.10;3.80;;;;;;;8.51;100.00;96416.19;7396585;19;20723;-74
2023/05/13 03:56:20;;;;;;;4.80;4.50;;;;;;;8.43;100.00;96403.81;7392151;19;20376;-74
2023/05/13 03:58:47;;;;;;;5.93;4.23;;;;;;;8.58;100.00;96438.38;7396194;19;20368;-74
2023/05/13 04:01:14;;;;;;;4.00;3.70;;;;;;;8.43;100.00;96412.47;7393965;19;20494;-74
2023/05/13 04:03:44;;;;;;;4.73;4.33;;;;;;;8.59;100.00;96444.41;7395158;19;20369;-74
2023/05/13 04:06:13;;;;;;;5.00;4.60;;;;;;;8.53;100.00;96435.09;7395415;19;20384;-74
2023/05/13 04:08:40;;;;;;;5.53;5.00;;;;;;;8.67;100.00;96432.31;7393229;19;20758;-74
2023/05/13 04:11:07;;;;;;;4.93;4.27;;;;;;;8.44;100.00;96419.31;7393053;19;20469;-74
2023/05/13 04:13:34;;;;;;;4.30;4.00;;;;;;;8.57;100.00;96431.53;7392979;19;20893;-74
2023/05/13 04:16:02;;;;;;;4.73;4.30;;;;;;;8.60;100.00;96430.16;7394552;19;20781;-74
2023/05/13 04:18:30;;;;;;;4.53;4.10;;;;;;;8.58;100.00;96433.09;7392876;19;20917;-74
2023/05/13 04:20:57;;;;;;;6.73;3.97;;;;;;;8.43;100.00;96414.34;7392307;19;20428;-74
2023/05/13 04:23:24;;;;;;;5.00;4.50;;;;;;;8.57;100.00;96443.94;7392792;19;20905;-74
2023/05/13 04:25:51;;;;;;;5.60;4.63;;;;;;;8.32;100.00;96397.25;7394597;19;20414;-73
2023/05/13 04:28:19;;;;;;;4.17;3.87;;;;;;;8.47;100.00;96418.69;7393621;19;20412;-74
2023/05/13 04:30:47;;;;;;;5.70;5.20;;;;;;;8.64;100.00;96438.19;7395436;19;20766;-74
2023/05/13 04:33:15;;;;;;;6.80;4.13;;;;;;;8.66;100.00;96447.34;7401725;19;20414;-74
2023/05/13 04:35:44;;;;;;;4.60;4.20;;;;;;;8.67;100.00;96446.25;7402413;19;20400;-74
2023/05/13 04:38:12;;;;;;;4.60;4.20;;;;;;;8.54;100.00;96424.25;7400591;19;20531;-74
2023/05/13 04:40:39;;;;;;;6.23;4.57;;;;;;;8.64;100.00;96438.19;7399953;19;20456;-74
2023/05/13 04:43:10;;;;;;;5.07;4.67;;;;;;;8.83;100.00;96457.13;7400995;19;20400;-74
2023/05/13 04:45:46;;;;;;;4.50;4.10;;;;;;;8.74;100.00;96454.47;7402811;19;20391;-74
2023/05/13 04:48:15;;;;;;;3.90;3.60;;;;;;;8.77;100.00;96435.41;7401110;19;20380;-74
2023/05/13 04:50:46;;;;;;;5.53;5.13;;;;;;;8.68;100.00;96420.66;7397415;19;20453;-74
2023/05/13 04:53:14;;;;;;;5.03;4.63;;;;;;;8.79;100.00;96438.50;7401154;19;20724;-74
2023/05/13 04:55:42;;;;;;;4.97;4.67;;;;;;;8.65;100.00;96427.34;7399862;19;20398;-74
2023/05/13 04:58:09;;;;;;;6.87;4.97;;;;;;;8.79;100.00;96450.91;7401334;19;20369;-74
2023/05/13 05:00:37;;;;;;;5.30;4.83;;;;;;;8.71;100.00;96428.75;7397526;19;20421;-74
2023/05/13 05:03:04;;;;;;;6.73;6.03;;;;;;;9.00;100.00;96472.94;7402808;19;20352;-74
2023/05/13 05:05:31;;;;;;;5.60;5.07;;;;;;;9.02;100.00;96467.34;7399843;19;20356;-74
2023/05/13 05:07:59;;;;;;;5.77;5.27;;;;;;;8.98;100.00;96454.00;7401319;19;20376;-74
2023/05/13 05:10:26;;;;;;;5.03;4.50;;;;;;;8.67;100.00;96398.81;7398034;19;20440;-74
2023/05/13 05:12:57;;;;;;;5.70;5.00;;;;;;;9.18;100.00;96481.59;7417761;19;20429;-73
2023/05/13 05:15:24;;;;;;;6.93;6.00;;;;;;;9.32;100.00;96476.13;7434822;19;20381;-73
2023/05/13 05:17:54;;;;;;;9.53;7.40;;;;;;;9.29;100.00;96450.38;7436717;19;20396;-73
2023/05/13 05:20:23;;;;;;;7.73;5.87;;;;;;;9.43;100.00;96474.72;7416099;19;20989;-74
2023/05/13 05:22:53;;;;;;;5.27;4.87;;;;;;;9.36;100.00;96483.13;7401369;19;20412;-74
2023/05/13 05:25:23;;;;;;;8.00;5.40;;;;;;;9.52;100.00;96477.34;7400229;19;20397;-74
2023/05/13 05:27:50;;;;;;;5.50;4.80;;;;;;;9.42;100.00;96481.06;7401472;19;20369;-74
2023/05/13 05:30:17;;;;;;;4.70;4.30;;;;;;;9.36;100.00;96475.22;7397856;19;20420;-74
2023/05/13 05:32:49;;;;;;;5.80;4.30;;;;;;;9.44;100.00;96469.13;7399218;19;20455;-74
2023/05/13 05:35:18;;;;;;;4.50;4.10;;;;;;;9.31;100.00;96453.47;7399606;19;20768;-74
2023/05/13 05:37:45;;;;;;;5.13;4.60;;;;;;;9.59;100.00;96483.66;7398520;19;20397;-74
2023/05/13 05:40:12;;;;;;;4.77;4.37;;;;;;;9.57;100.00;96482.44;7400934;19;20434;-74
2023/05/13 05:42:39;;;;;;;5.50;5.07;;;;;;;9.70;100.00;96484.09;7393800;19;20429;-74
2023/05/13 05:45:08;;;;;;;5.27;4.47;;;;;;;9.76;100.00;96494.19;7398847;19;20900;-74
2023/05/13 05:47:35;;;;;;;6.03;4.80;;;;;;;9.93;100.00;96503.91;7399763;19;20388;-74
2023/05/13 05:50:03;;;;;;;5.13;4.63;;;;;;;9.94;100.00;96504.69;7397161;19;20412;-74
2023/05/13 05:52:30;;;;;;;4.37;3.97;;;;;;;9.89;100.00;96473.94;7397566;19;20433;-74
2023/05/13 05:54:57;;;;;;;4.80;4.23;;;;;;;10.00;100.00;96490.97;7398743;19;20487;-74
2023/05/13 05:57:24;;;;;;;4.90;4.50;;;;;;;10.15;100.00;96502.06;7399808;19;20388;-74
2023/05/13 05:59:51;;;;;;;5.10;4.80;;;;;;;10.26;100.00;96479.53;7397980;19;20424;-74
2023/05/13 06:02:18;;;;;;;4.10;3.80;;;;;;;10.64;100.00;96482.84;7395322;19;20393;-74
2023/05/13 06:04:45;;;;;;;5.50;5.00;;;;;;;10.61;100.00;96509.94;7398745;19;20372;-74
2023/05/13 06:07:12;;;;;;;6.70;5.53;;;;;;;10.68;100.00;96506.78;7396644;19;20425;-74
2023/05/13 06:09:39;;;;;;;5.53;5.03;;;;;;;10.83;100.00;96503.56;7397390;19;20468;-74
2023/05/13 06:12:07;;;;;;;4.37;4.07;;;;;;;10.61;100.00;96488.78;7397114;19;20380;-74
2023/05/13 06:14:34;;;;;;;5.37;4.87;;;;;;;11.02;100.00;96516.34;7398356;19;20417;-74
2023/05/13 06:17:01;;;;;;;6.53;4.40;;;;;;;10.43;100.00;96497.16;7397252;19;20377;-74
2023/05/13 06:19:28;;;;;;;5.10;4.70;;;;;;;10.45;100.00;96479.13;7397770;19;20460;-74
2023/05/13 06:21:56;;;;;;;5.43;4.80;;;;;;;10.61;100.00;96494.06;7395578;19;20777;-74
2023/05/13 06:24:23;;;;;;;5.50;4.40;;;;;;;10.70;100.00;96507.25;7398498;19;20401;-74
2023/05/13 06:26:49;;;;;;;6.03;4.63;;;;;;;10.63;100.00;96497.16;7398029;19;20365;-74
2023/05/13 06:29:16;;;;;;;4.87;4.30;;;;;;;10.61;100.00;96493.31;7397698;19;20495;-74
2023/05/13 06:31:43;;;;;;;4.30;3.90;;;;;;;10.73;100.00;96511.13;7396629;19;20461;-74
2023/05/13 06:34:15;;;;;;;5.03;4.57;;;;;;;10.57;100.00;96472.03;7398333;19;20405;-74
2023/05/13 06:36:43;;;;;;;5.83;4.60;;;;;;;10.69;100.00;96494.34;7396897;19;20383;-74
2023/05/13 06:39:10;;;;;;;4.87;4.47;;;;;;;10.51;100.00;96483.09;7397566;19;20756;-74
2023/05/13 06:41:39;;;;;;;5.10;4.60;;;;;;;10.62;100.00;96481.63;7396074;19;20384;-74
2023/05/13 06:44:11;;;;;;;5.70;4.40;;;;;;;10.73;100.00;96503.19;7398738;19;20392;-74
2023/05/13 06:46:39;;;;;;;4.50;4.10;;;;;;;10.97;100.00;96498.03;7396716;19;20406;-74
2023/05/13 06:49:06;;;;;;;5.20;4.70;;;;;;;10.51;100.00;96505.03;7398181;19;20389;-74
2023/05/13 06:51:33;;;;;;;8.37;4.77;;;;;;;10.41;100.00;96480.81;7397294;19;20434;-74
2023/05/13 06:54:00;;;;;;;5.10;4.60;;;;;;;10.43;100.00;96476.78;7397169;19;20376;-74
2023/05/13 06:56:28;;;;;;;5.23;4.57;;;;;;;10.50;100.00;96506.13;7396320;19;20896;-74
2023/05/13 06:58:55;;;;;;;4.00;3.70;;;;;;;10.40;100.00;96477.41;7394698;19;20340;-74
2023/05/13 07:01:22;;;;;;;5.70;4.30;;;;;;;10.58;100.00;96494.72;7397468;19;20345;-74
2023/05/13 07:03:49;;;;;;;4.43;4.03;;;;;;;10.39;100.00;96481.16;7396280;19;20460;-74
2023/05/13 07:06:16;;;;;;;5.20;4.80;;;;;;;10.50;100.00;96508.75;7397712;19;20385;-74
2023/05/13 07:08:43;;;;;;;5.00;4.60;;;;;;;10.60;100.00;96495.16;7395040;19;20557;-74
2023/05/13 07:11:10;;;;;;;4.97;4.57;;;;;;;10.61;100.00;96502.00;7394267;19;20809;-74
2023/05/13 07:13:37;;;;;;;6.10;5.60;;;;;;;10.65;100.00;96504.78;7394460;19;20370;-74
2023/05/13 07:16:04;;;;;;;6.20;4.00;;;;;;;10.23;100.00;96459.78;7395846;19;20448;-74
2023/05/13 07:18:31;;;;;;;4.37;4.07;;;;;;;10.45;100.00;96490.47;7395086;19;20380;-74
2023/05/13 07:20:59;;;;;;;4.37;4.00;;;;;;;10.55;100.00;96513.88;7394184;19;20436;-74
2023/05/13 07:23:25;;;;;;;4.10;3.80;;;;;;;10.37;100.00;96485.97;7394315;19;20969;-74
2023/05/13 07:25:52;;;;;;;4.00;3.63;;;;;;;10.49;100.00;96495.88;7396055;19;20437;-74
2023/05/13 07:28:19;;;;;;;5.27;4.83;;;;;;;10.54;100.00;96482.44;7395024;19;20384;-74
2023/05/13 07:30:46;;;;;;;4.07;3.67;;;;;;;10.62;100.00;96495.63;7394209;19;21096;-74
2023/05/13 07:33:14;;;;;;;4.00;3.30;;;;;;;10.48;100.00;96473.94;7396663;19;20398;-74
2023/05/13 07:35:41;;;;;;;4.00;3.60;;;;;;;10.79;100.00;96512.47;7395877;19;20377;-74
2023/05/13 07:38:09;;;;;;;3.80;3.47;;;;;;;10.81;100.00;96512.91;7395945;19;20433;-74
2023/05/13 07:40:36;;;;;;;3.73;3.43;;;;;;;11.09;100.00;96502.59;7396434;19;20510;-74
2023/05/13 07:43:04;;;;;;;5.90;3.80;;;;;;;11.28;100.00;96510.81;7392813;19;20484;-74
2023/05/13 07:45:31;;;;;;;4.23;3.83;;;;;;;11.07;100.00;96473.00;7396170;19;20376;-74
2023/05/13 07:47:58;;;;;;;3.77;3.47;;;;;;;11.15;100.00;96485.41;7394181;19;20448;-74
2023/05/13 07:50:25;;;;;;;3.80;3.50;;;;;;;10.99;100.00;96498.47;7394794;19;20413;-74
2023/05/13 07:52:52;;;;;;;3.53;3.23;;;;;;;10.90;100.00;96505.69;7394018;19;20916;-74
2023/05/13 07:55:19;;;;;;;4.70;4.20;;;;;;;10.92;100.00;96488.38;7395440;19;20474;-74
2023/05/13 07:57:46;;;;;;;4.60;4.00;;;;;;;10.84;100.00;96494.53;7396188;19;20903;-74
2023/05/13 08:00:14;;;;;;;3.47;3.17;;;;;;;10.92;100.00;96516.72;7394983;19;20428;-74
2023/05/13 08:02:42;;;;;;;3.73;3.17;;;;;;;10.65;100.00;96484.41;7394419;19;20348;-74
2023/05/13 08:05:10;;;;;;;3.63;2.87;;;;;;;11.02;100.00;96503.09;7395174;19;20348;-74
2023/05/13 08:07:37;;;;;;;3.47;3.17;;;;;;;11.20;100.00;96522.25;7394211;19;20456;-74
2023/05/13 08:10:04;;;;;;;9.13;3.60;;;;;;;10.97;100.00;96495.38;7394513;19;20432;-74
2023/05/13 08:12:31;;;;;;;3.23;2.93;;;;;;;10.96;100.00;96507.06;7395566;19;20836;-74
2023/05/13 08:14:59;;;;;;;3.67;3.37;;;;;;;10.99;100.00;96522.28;7395711;19;20909;-74
2023/05/13 08:17:26;;;;;;;3.60;3.30;;;;;;;10.93;100.00;96526.19;7396857;19;20357;-74
2023/05/13 08:19:53;;;;;;;3.33;3.13;;;;;;;10.95;100.00;96521.34;7392448;19;20397;-74
2023/05/13 08:22:20;;;;;;;6.50;3.37;;;;;;;10.97;100.00;96513.88;7394146;19;20368;-74
2023/05/13 08:24:47;;;;;;;3.37;3.10;;;;;;;11.27;100.00;96534.97;7393536;19;20351;-74
2023/05/13 08:27:14;;;;;;;3.07;2.87;;;;;;;10.97;100.00;96527.13;7391414;19;20342;-74
2023/05/13 08:29:41;;;;;;;3.13;2.83;;;;;;;11.01;100.00;96509.50;7392260;19;20432;-74
2023/05/13 08:32:08;;;;;;;4.30;3.97;;;;;;;11.13;100.00;96540.53;7394191;19;20464;-74
2023/05/13 08:34:35;;;;;;;3.90;3.60;;;;;;;11.04;100.00;96543.25;7392987;19;20392;-74
2023/05/13 08:37:02;;;;;;;2.77;2.57;;;;;;;10.81;100.00;96534.84;7393460;19;20522;-74
2023/05/13 08:39:29;;;;;;;4.40;4.00;;;;;;;10.84;100.00;96517.56;7392733;19;20400;-74
2023/05/13 08:41:57;;;;;;;4.17;3.87;;;;;;;10.93;100.00;96507.69;7394535;19;20881;-74
2023/05/13 08:44:28;;;;;;;5.60;3.93;;;;;;;10.84;100.00;96514.94;7409714;19;20372;-74
2023/05/13 08:47:20;;;;;;;4.93;3.63;;;;;;;10.72;100.00;96512.97;7428034;19;20356;-74
2023/05/13 08:49:49;;;;;;;6.40;5.80;;;;;;;10.82;100.00;96543.56;7424346;19;20428;-72
2023/05/13 08:52:17;;;;;;;5.07;4.00;;;;;;;10.71;100.00;96511.44;7429007;19;20365;-74
2023/05/13 08:54:45;;;;;;;6.50;5.87;;;;;;;10.81;100.00;96532.19;7425687;19;20380;-74
2023/05/13 08:57:12;;;;;;;4.37;3.67;;;;;;;10.75;100.00;96540.66;7393884;19;20389;-75
2023/05/13 08:59:39;;;;;;;5.03;4.53;;;;;;;10.97;100.00;96545.63;7392944;19;20486;-74
2023/05/13 09:02:08;;;;;;;3.23;2.93;;;;;;;10.77;100.00;96528.66;7392948;19;20409;-75
2023/05/13 09:04:37;;;;;;;4.67;4.20;;;;;;;10.80;100.00;96521.94;7393232;19;20404;-74
2023/05/13 09:07:05;;;;;;;2.97;2.77;;;;;;;10.88;100.00;96521.13;7393425;19;20369;-75
2023/05/13 09:09:32;;;;;;;4.27;3.97;;;;;;;11.07;100.00;96547.88;7392494;19;20810;-74
2023/05/13 09:11:59;;;;;;;3.37;3.17;;;;;;;11.05;100.00;96528.13;7391761;19;20367;-75
2023/05/13 09:14:32;;;;;;;3.90;3.50;;;;;;;10.99;100.00;96546.09;7393575;19;20487;-74
2023/05/13 09:17:03;;;;;;;3.40;3.10;;;;;;;11.17;100.00;96549.38;7396813;19;20360;-75
2023/05/13 09:19:30;;;;;;;2.80;2.60;;;;;;;10.99;100.00;96535.50;7400203;19;20785;-75
2023/05/13 09:21:57;;;;;;;3.47;3.20;;;;;;;10.93;100.00;96528.84;7400649;19;20356;-74
2023/05/13 09:24:24;;;;;;;2.70;2.50;;;;;;;10.83;100.00;96523.97;7400509;19;20957;-75
2023/05/13 09:26:51;;;;;;;3.27;3.07;;;;;;;10.69;100.00;96494.34;7399110;19;20687;-75
2023/05/13 09:29:19;;;;;;;2.60;2.40;;;;;;;10.96;100.00;96538.81;7401696;19;20475;-76
2023/05/13 09:31:52;;;;;;;2.20;2.10;;;;;;;10.94;100.00;96533.81;7405256;19;20393;-75
2023/05/13 09:34:33;;;;;;;2.53;2.33;;;;;;;10.94;100.00;96540.97;7406595;19;20445;-75
2023/05/13 09:37:05;;;;;;;3.03;2.83;;;;;;;10.90;100.00;96517.03;7404188;19;20389;-75
2023/05/13 09:39:42;;;;;;;3.27;2.57;;;;;;;11.02;100.00;96503.09;7404235;19;20420;-75
2023/05/13 09:42:16;;;;;;;2.90;2.30;;;;;;;11.35;100.00;96534.91;7404557;19;20409;-75
2023/05/13 09:44:44;;;;;;;3.50;2.90;;;;;;;11.25;100.00;96522.06;7403832;19;20933;-75
2023/05/13 09:47:15;;;;;;;2.17;2.03;;;;;;;11.40;100.00;96529.41;7405544;19;20409;-75
2023/05/13 09:49:43;;;;;;;2.60;2.27;;;;;;;11.09;100.00;96492.78;7403843;19;20414;-75
2023/05/13 09:52:15;;;;;;;2.33;2.20;;;;;;;11.22;100.00;96552.59;7406207;19;20401;-75
2023/05/13 09:54:43;;;;;;;2.33;2.23;;;;;;;11.06;100.00;96545.56;7398699;19;20948;-75
2023/05/13 09:57:12;;;;;;;2.27;2.07;;;;;;;11.15;100.00;96552.34;7405750;19;20362;-75
2023/05/13 09:59:39;;;;;;;3.53;2.33;;;;;;;10.90;100.00;96522.34;7401018;19;20971;-75
2023/05/13 10:02:09;;;;;;;2.00;1.90;;;;;;;11.03;100.00;96556.78;7402817;19;20398;-75
2023/05/13 10:04:36;;;;;;;2.90;2.70;;;;;;;10.64;100.00;96509.28;7402064;19;20391;-74
2023/05/13 10:07:03;;;;;;;3.00;2.67;;;;;;;10.92;100.00;96540.53;7400640;19;20467;-75
2023/05/13 10:09:35;;;;;;;3.93;2.97;;;;;;;10.95;100.00;96553.91;7401886;19;20421;-75
2023/05/13 10:12:05;;;;;;;4.17;3.23;;;;;;;10.69;100.00;96499.63;7401356;19;20389;-75
2023/05/13 10:14:32;;;;;;;3.57;3.27;;;;;;;10.99;100.00;96535.50;7403255;19;20392;-75
2023/05/13 10:16:59;;;;;;;4.00;3.03;;;;;;;10.89;100.00;96534.00;7401601;19;20394;-75
2023/05/13 10:19:27;;;;;;;3.80;3.50;;;;;;;10.77;100.00;96522.59;7402236;19;20420;-75
2023/05/13 10:21:56;;;;;;;2.97;2.77;;;;;;;11.09;100.00;96548.34;7402036;19;20395;-75
2023/05/13 10:24:23;;;;;;;3.60;3.30;;;;;;;11.06;100.00;96529.69;7403706;19;20401;-75
2023/05/13 10:26:51;;;;;;;2.80;2.60;;;;;;;10.79;100.00;96520.38;7400753;19;20404;-74
2023/05/13 10:29:21;;;;;;;2.80;2.60;;;;;;;10.91;100.00;96538.97;7396999;19;20430;-73
2023/05/13 10:31:49;;;;;;;3.70;2.83;;;;;;;10.56;100.00;96475.00;7398445;19;20398;-74
2023/05/13 10:34:16;;;;;;;3.73;3.43;;;;;;;11.03;100.00;96549.63;7398425;19;20959;-75
2023/05/13 10:36:55;;;;;;;4.30;4.00;;;;;;;11.03;100.00;96562.09;7399808;19;20735;-76
2023/05/13 10:39:33;;;;;;;6.13;3.63;;;;;;;11.12;100.00;96557.50;7400661;19;20408;-75
2023/05/13 10:42:31;;;;;;;4.73;4.10;;;;;;;10.99;100.00;96556.66;7401839;19;20429;-75
2023/05/13 10:44:58;;;;;;;4.67;4.30;;;;;;;10.68;100.00;96527.16;7400546;19;20376;-75
2023/05/13 10:47:26;;;;;;;5.60;4.73;;;;;;;10.65;100.00;96518.78;7401862;19;20396;-75
2023/05/13 10:49:53;;;;;;;4.40;4.03;;;;;;;11.11;100.00;96554.09;7400029;19;20428;-76
2023/05/13 10:52:20;;;;;;;7.73;4.80;;;;;;;10.84;100.00;96534.22;7401524;19;20365;-75
2023/05/13 10:55:01;;;;;;;4.80;4.40;;;;;;;11.16;100.00;96563.69;7403121;19;20737;-75
2023/05/13 10:57:34;;;;;;;5.73;5.20;;;;;;;11.07;100.00;96541.81;7401119;19;20376;-75
2023/05/13 11:00:15;;;;;;;5.13;4.73;;;;;;;11.14;100.00;96534.13;7400651;19;20833;-76
2023/05/13 11:02:42;;;;;;;5.30;4.80;;;;;;;11.13;100.00;96546.59;7400350;19;20393;-75
2023/05/13 11:05:18;;;;;;;4.60;4.20;;;;;;;11.13;100.00;96527.31;7403144;19;20876;-75
2023/05/13 11:07:55;;;;;;;5.97;4.70;;;;;;;11.20;100.00;96528.31;7401020;19;20401;-75
2023/05/13 11:10:27;;;;;;;4.63;4.23;;;;;;;10.98;100.00;96560.41;7396617;19;20423;-75
2023/05/13 11:13:08;;;;;;;5.13;4.63;;;;;;;10.99;100.00;96569.13;7399985;19;20400;-75
2023/05/13 11:15:47;;;;;;;6.00;5.50;;;;;;;10.95;100.00;96575.06;7398975;19;20373;-75
2023/05/13 11:18:15;;;;;;;7.80;5.60;;;;;;;11.12;100.00;96574.16;7401102;19;20381;-74
2023/05/13 11:20:52;;;;;;;9.27;5.40;;;;;;;10.89;100.00;96557.81;7398015;19;20435;-75
2023/05/13 11:23:20;;;;;;;5.37;4.87;;;;;;;10.71;100.00;96545.03;7400260;19;20397;-75
2023/05/13 11:26:11;;;;;;;5.63;4.97;;;;;;;11.06;100.00;96574.66;7400643;19;20392;-75
2023/05/13 11:29:04;;;;;;;4.67;4.27;;;;;;;11.40;100.00;96565.69;7399931;19;20439;-75
2023/05/13 11:31:48;;;;;;;5.43;5.03;;;;;;;11.45;100.00;96571.53;7399721;19;20425;-75
2023/05/13 11:34:17;;;;;;;5.87;5.33;;;;;;;11.25;100.00;96546.66;7399889;19;20392;-75
2023/05/13 11:37:07;;;;;;;5.23;4.83;;;;;;;11.48;100.00;96565.59;7395456;19;20915;-73